createdAt,value
2019-02-03T00:11:12.027Z,25.9
2019-02-03T00:23:00.048Z,25.9
2019-02-03T00:49:33.030Z,26.2
2019-02-03T01:39:42.630Z,27
2019-02-03T01:42:38.858Z,27
2019-02-03T01:45:36.034Z,27.1
2019-02-03T01:48:32.999Z,27.2
2019-02-03T01:54:27.048Z,27.3
2019-02-03T02:03:17.989Z,27.5
2019-02-03T02:09:12.116Z,27.6
2019-02-03T02:44:36.299Z,28.3
2019-02-03T03:14:06.240Z,29
2019-02-03T03:20:00.210Z,29.1
2019-02-03T03:22:56.893Z,29.1
2019-02-03T03:25:54.263Z,29.2
2019-02-03T03:31:48.163Z,29.4
2019-02-03T03:34:45.270Z,29.4
2019-02-03T03:37:42.093Z,29.5
2019-02-03T03:40:39.016Z,29.6
2019-02-03T03:43:36.275Z,29.7
2019-02-03T03:49:30.430Z,29.9
2019-02-03T03:55:24.322Z,30
2019-02-03T04:01:18.280Z,30.2
2019-02-03T04:04:16.463Z,30.2
2019-02-03T04:10:09.125Z,30.3
2019-02-03T04:13:06.218Z,30.4
2019-02-03T04:16:03.171Z,30.4
2019-02-03T04:24:54.361Z,30.7
2019-02-03T04:27:51.190Z,30.8
2019-02-03T04:30:48.389Z,30.9
2019-02-03T04:33:45.114Z,30.9
2019-02-03T04:36:42.373Z,31
2019-02-03T04:39:39.362Z,31
2019-02-03T04:42:36.472Z,31.1
2019-02-03T04:45:33.131Z,31.2
2019-02-03T04:48:30.439Z,31.2
2019-02-03T04:51:27.220Z,31.3
2019-02-03T04:54:24.434Z,31.4
2019-02-03T04:57:21.225Z,31.4
2019-02-03T05:00:18.282Z,31.5
2019-02-03T05:06:12.394Z,31.7
2019-02-03T05:09:10.899Z,31.8
2019-02-03T05:12:06.375Z,31.8
2019-02-03T05:15:03.396Z,31.8
2019-02-03T05:18:00.289Z,31.9
2019-02-03T05:23:54.482Z,32
2019-02-03T05:26:51.239Z,31.9
2019-02-03T05:29:48.463Z,31.6
2019-02-03T05:32:45.244Z,31.4
2019-02-03T05:38:39.500Z,31.2
2019-02-03T05:47:30.469Z,31.2
2019-02-03T05:50:27.329Z,31.2
2019-02-03T06:02:15.700Z,31.7
2019-02-03T06:05:12.196Z,31.7
2019-02-03T06:34:42.407Z,32.2
2019-02-03T06:40:36.570Z,32.2
2019-02-03T07:01:15.414Z,32.3
2019-02-03T07:16:00.817Z,32.4
2019-02-03T07:18:57.503Z,32.4
2019-02-03T07:21:54.438Z,32.4
2019-02-03T07:33:42.712Z,32.4
2019-02-03T07:45:30.661Z,32.4
2019-02-03T07:48:27.531Z,32.4
2019-02-03T07:51:24.619Z,32.4
2019-02-03T07:54:21.256Z,32.4
2019-02-03T07:57:18.566Z,32.4
2019-02-03T08:00:15.524Z,32.5
2019-02-03T08:06:09.756Z,32.4
2019-02-03T08:09:06.493Z,32.4
2019-02-03T08:12:03.738Z,32.4
2019-02-03T08:15:00.627Z,32.4
2019-02-03T08:17:57.539Z,32.3
2019-02-03T08:20:54.631Z,32.3
2019-02-03T08:23:51.800Z,32.3
2019-02-03T08:26:48.408Z,32.4
2019-02-03T08:29:45.643Z,32.3
2019-02-03T08:32:42.401Z,32.3
2019-02-03T08:35:39.698Z,32.2
2019-02-03T08:38:36.585Z,32.2
2019-02-03T08:41:33.583Z,32.1
2019-02-03T08:44:30.405Z,32.2
2019-02-03T08:50:24.702Z,32.1
2019-02-03T08:56:18.735Z,32.1
2019-02-03T08:59:16.199Z,32
2019-02-03T09:02:12.862Z,31.9
2019-02-03T09:05:09.454Z,32
2019-02-03T09:08:06.707Z,32
2019-02-03T09:43:31.086Z,31.7
2019-02-03T09:46:27.733Z,31.6
2019-02-03T10:13:00.929Z,31.2
2019-02-03T10:15:57.413Z,31
2019-02-03T11:03:10.191Z,30.2
2019-02-03T11:09:03.934Z,30.2
2019-02-03T11:20:51.968Z,29.9
2019-02-03T11:23:48.687Z,29.8
2019-02-03T11:29:42.850Z,29.8
2019-02-03T11:32:39.941Z,29.8
2019-02-03T11:35:36.950Z,29.7
2019-02-03T11:38:34.054Z,29.7
2019-02-03T11:41:30.994Z,29.6
2019-02-03T11:44:27.735Z,29.6
2019-02-03T11:47:25.247Z,29.6
2019-02-03T11:50:21.765Z,29.6
2019-02-03T11:53:19.050Z,29.6
2019-02-03T11:59:13.051Z,29.5
2019-02-03T12:02:09.799Z,29.4
2019-02-03T12:08:04.543Z,29.4
2019-02-03T12:11:00.762Z,29.4
2019-02-03T12:13:58.012Z,29.4
2019-02-03T12:16:54.792Z,29.3
2019-02-03T12:19:52.052Z,29.3
2019-02-03T12:22:48.749Z,29.3
2019-02-03T12:31:40.086Z,29.2
2019-02-03T12:34:36.844Z,29.2
2019-02-03T12:40:31.185Z,29.2
2019-02-03T12:46:25.112Z,29.1
2019-02-03T12:49:21.958Z,29.1
2019-02-03T12:52:19.076Z,29.1
2019-02-03T12:55:15.903Z,29.1
2019-02-03T13:01:10.112Z,29
2019-02-03T13:04:07.037Z,29
2019-02-03T13:07:04.128Z,29
2019-02-03T13:10:01.053Z,29
2019-02-03T13:12:58.099Z,29
2019-02-03T13:15:54.760Z,29
2019-02-03T13:18:51.879Z,29
2019-02-03T13:21:48.687Z,29
2019-02-03T13:27:42.902Z,29
2019-02-03T13:30:39.678Z,29
2019-02-03T13:33:37.927Z,29
2019-02-03T13:36:33.665Z,28.9
2019-02-03T13:39:30.971Z,28.9
2019-02-03T13:42:36.747Z,28.9
2019-02-03T13:45:24.918Z,28.9
2019-02-03T13:48:21.762Z,28.8
2019-02-03T13:51:18.995Z,28.8
2019-02-03T13:54:15.703Z,28.8
2019-02-03T14:03:06.934Z,28.8
2019-02-03T14:06:03.735Z,28.8
2019-02-03T14:09:00.902Z,28.8
2019-02-03T14:11:57.757Z,28.8
2019-02-03T14:14:55.171Z,28.7
2019-02-03T14:17:51.690Z,28.7
2019-02-03T14:20:48.994Z,28.7
2019-02-03T14:26:43.036Z,28.7
2019-02-03T14:32:37.064Z,28.8
2019-02-03T14:38:32.537Z,28.7
2019-02-03T14:41:27.735Z,28.7
2019-02-03T14:44:25.069Z,28.7
2019-02-03T14:47:21.757Z,28.7
2019-02-03T14:50:19.047Z,28.7
2019-02-03T14:53:15.760Z,28.7
2019-02-03T14:56:13.135Z,28.8
2019-02-03T14:59:09.754Z,28.7
2019-02-03T15:02:07.031Z,28.6
2019-02-03T15:08:01.028Z,28.6
2019-02-03T15:10:57.865Z,28.6
2019-02-03T15:13:55.002Z,28.6
2019-02-03T15:16:51.850Z,28.7
2019-02-03T15:19:49.257Z,28.6
2019-02-03T15:22:45.820Z,28.6
2019-02-03T15:25:43.063Z,28.6
2019-02-03T15:31:37.048Z,28.6
2019-02-03T15:34:33.880Z,28.6
2019-02-03T15:37:32.097Z,28.6
2019-02-03T15:40:27.877Z,28.5
2019-02-03T15:43:25.910Z,28.5
2019-02-03T15:46:21.831Z,28.5
2019-02-03T15:52:16.101Z,28.5
2019-02-03T15:55:12.900Z,28.5
2019-02-03T15:58:10.096Z,28.4
2019-02-03T16:01:06.904Z,28.4
2019-02-03T16:07:01.071Z,28.4
2019-02-03T16:12:55.156Z,28.4
2019-02-03T16:15:51.876Z,28.4
2019-02-03T16:18:49.165Z,28.4
2019-02-03T16:21:45.923Z,28.3
2019-02-03T16:24:43.334Z,28.3
2019-02-03T16:27:39.925Z,28.3
2019-02-03T16:30:37.079Z,28.3
2019-02-03T16:33:34.033Z,28.3
2019-02-03T16:36:31.144Z,28.2
2019-02-03T16:39:29.590Z,28.3
2019-02-03T16:42:25.181Z,28.2
2019-02-03T16:45:21.920Z,28.2
2019-02-03T16:48:20.185Z,28.2
2019-02-03T16:51:15.975Z,28.2
2019-02-03T16:54:13.215Z,28.1
2019-02-03T16:57:09.942Z,28.2
2019-02-03T17:00:07.276Z,28.2
2019-02-03T17:03:04.043Z,28.2
2019-02-03T17:06:01.193Z,28.2
2019-02-03T17:11:55.229Z,28.1
2019-02-03T17:14:52.074Z,28.1
2019-02-03T17:17:49.153Z,28.1
2019-02-03T17:23:43.202Z,28.2
2019-02-03T17:29:37.512Z,28.2
2019-02-03T17:35:31.269Z,28.2
2019-02-03T17:38:28.171Z,28.1
2019-02-03T17:41:25.260Z,28.1
2019-02-03T17:44:22.146Z,28.1
2019-02-03T17:47:19.288Z,28.1
2019-02-03T17:50:16.111Z,28.2
2019-02-03T17:59:07.373Z,28.2
2019-02-03T18:02:04.217Z,28.2
2019-02-03T18:05:01.306Z,28.2
2019-02-03T18:10:55.514Z,28.1
2019-02-03T18:16:49.325Z,28.1
2019-02-03T18:19:46.198Z,28.1
2019-02-03T18:22:43.317Z,28.1
2019-02-03T18:25:40.122Z,28.1
2019-02-03T18:28:37.335Z,28
2019-02-03T18:31:34.168Z,28
2019-02-03T18:34:31.482Z,28
2019-02-03T18:37:28.237Z,28
2019-02-03T18:40:25.470Z,28
2019-02-03T18:43:22.156Z,27.9
2019-02-03T18:46:19.382Z,28
2019-02-03T18:49:16.223Z,28
2019-02-03T18:52:13.406Z,28
2019-02-03T18:55:10.144Z,28
2019-02-03T18:58:07.409Z,28
2019-02-03T19:01:04.195Z,27.9
2019-02-03T19:04:01.413Z,27.9
2019-02-03T19:09:55.603Z,27.9
2019-02-03T19:12:52.179Z,27.9
2019-02-03T19:15:49.333Z,27.9
2019-02-03T19:18:46.210Z,27.9
2019-02-03T19:21:43.365Z,27.8
2019-02-03T19:24:40.161Z,27.8
2019-02-03T19:27:37.469Z,27.8
2019-02-03T19:33:31.371Z,27.7
2019-02-03T19:42:22.513Z,27.7
2019-02-03T19:45:19.172Z,27.7
2019-02-03T19:48:16.391Z,27.6
2019-02-03T19:51:13.406Z,27.6
2019-02-03T19:54:10.402Z,27.6
2019-02-03T19:57:07.248Z,27.5
2019-02-03T20:00:04.418Z,27.6
2019-02-03T20:03:01.239Z,27.6
2019-02-03T20:05:59.096Z,27.5
2019-02-03T20:08:55.666Z,27.6
2019-02-03T20:11:52.577Z,27.5
2019-02-03T20:14:49.378Z,27.6
2019-02-03T20:17:46.421Z,27.6
2019-02-03T20:20:43.331Z,27.6
2019-02-03T20:23:40.450Z,27.5
2019-02-03T20:26:37.248Z,27.5
2019-02-03T20:29:34.418Z,27.5
2019-02-03T20:32:31.305Z,27.5
2019-02-03T20:35:28.460Z,27.5
2019-02-03T20:38:25.265Z,27.5
2019-02-03T20:41:22.539Z,27.5
2019-02-03T20:47:16.684Z,27.5
2019-02-03T20:50:13.309Z,27.5
2019-02-03T20:53:10.681Z,27.5
2019-02-03T20:56:07.647Z,27.4
2019-02-03T20:59:04.568Z,27.5
2019-02-03T21:02:01.512Z,27.4
2019-02-03T21:04:58.756Z,27.4
2019-02-03T21:07:55.458Z,27.4
2019-02-03T21:10:52.686Z,27.4
2019-02-03T21:13:49.450Z,27.4
2019-02-03T21:16:46.678Z,27.4
2019-02-03T21:19:43.377Z,27.5
2019-02-03T21:22:40.529Z,27.4
2019-02-03T21:25:37.465Z,27.4
2019-02-03T21:28:34.643Z,27.4
2019-02-03T21:31:31.452Z,27.4
2019-02-03T21:34:28.544Z,27.4
2019-02-03T21:37:25.539Z,27.4
2019-02-03T21:40:22.896Z,27.3
2019-02-03T21:43:19.489Z,27.3
2019-02-03T21:46:16.576Z,27.3
2019-02-03T21:49:13.398Z,27.3
2019-02-03T21:55:07.813Z,27.3
2019-02-03T21:58:04.433Z,27.3
2019-02-03T22:01:01.792Z,27.2
2019-02-03T22:03:58.538Z,27.2
2019-02-03T22:06:55.611Z,27.2
2019-02-03T22:09:52.700Z,27.2
2019-02-03T22:15:55.288Z,27.2
2019-02-03T22:18:43.809Z,27.2
2019-02-03T22:21:40.676Z,27.2
2019-02-03T22:24:37.632Z,27.2
2019-02-03T22:27:34.805Z,27.2
2019-02-03T22:30:31.511Z,27.1
2019-02-03T22:33:28.851Z,27.1
2019-02-03T22:36:25.490Z,27.1
2019-02-03T22:39:22.754Z,27.1
2019-02-03T22:42:19.531Z,27.1
2019-02-03T22:45:16.642Z,27.1
2019-02-03T22:48:13.484Z,27.1
2019-02-03T22:51:10.802Z,27.1
2019-02-03T22:54:07.639Z,27
2019-02-03T22:57:04.795Z,27
2019-02-03T23:00:01.695Z,27
2019-02-03T23:02:58.788Z,27
2019-02-03T23:05:55.711Z,26.9
2019-02-03T23:11:49.827Z,26.8
2019-02-03T23:14:46.654Z,26.8
2019-02-03T23:23:37.882Z,26.8
2019-02-03T23:26:34.790Z,26.8
2019-02-03T23:29:31.991Z,26.8
2019-02-03T23:32:28.687Z,26.7
2019-02-03T23:35:26.007Z,26.7
2019-02-03T23:38:22.896Z,26.7
2019-02-03T23:44:17.022Z,26.6
2019-02-03T23:47:13.802Z,26.6
2019-02-03T23:50:10.846Z,26.5
2019-02-03T23:53:07.711Z,26.5
2019-02-03T23:59:02.195Z,26.6
